sensor_id;sensor_type;location;lat;lon;timestamp;P1;durP1;ratioP1;P2;durP2;ratioP2
54454;SDS011;40364;52.270;10.546;2023-02-01T00:01:50;8.25;;;1.50;;
54454;SDS011;40364;52.270;10.546;2023-02-01T00:04:17;13.10;;;1.55;;
54454;SDS011;40364;52.270;10.546;2023-02-01T00:06:44;13.23;;;2.42;;
54454;SDS011;40364;52.270;10.546;2023-02-01T00:09:11;11.85;;;1.92;;
54454;SDS011;40364;52.270;10.546;2023-02-01T00:11:37;19.33;;;2.20;;
54454;SDS011;40364;52.270;10.546;2023-02-01T00:14:06;12.70;;;1.90;;
54454;SDS011;40364;52.270;10.546;2023-02-01T00:16:33;18.27;;;2.22;;
54454;SDS011;40364;52.270;10.546;2023-02-01T00:19:00;12.02;;;1.85;;
54454;SDS011;40364;52.270;10.546;2023-02-01T00:21:29;15.90;;;2.15;;
54454;SDS011;40364;52.270;10.546;2023-02-01T00:23:56;11.95;;;2.05;;
54454;SDS011;40364;52.270;10.546;2023-02-01T00:26:25;15.18;;;2.08;;
54454;SDS011;40364;52.270;10.546;2023-02-01T00:28:56;13.52;;;2.05;;
54454;SDS011;40364;52.270;10.546;2023-02-01T00:31:25;12.40;;;2.13;;
54454;SDS011;40364;52.270;10.546;2023-02-01T00:33:51;25.05;;;1.90;;
54454;SDS011;40364;52.270;10.546;2023-02-01T00:36:18;9.50;;;2.13;;
54454;SDS011;40364;52.270;10.546;2023-02-01T00:38:45;9.48;;;1.88;;
54454;SDS011;40364;52.270;10.546;2023-02-01T00:41:13;13.98;;;2.28;;
54454;SDS011;40364;52.270;10.546;2023-02-01T00:43:41;15.98;;;1.73;;
54454;SDS011;40364;52.270;10.546;2023-02-01T00:46:09;11.73;;;2.38;;
54454;SDS011;40364;52.270;10.546;2023-02-01T00:48:39;10.73;;;1.92;;
54454;SDS011;40364;52.270;10.546;2023-02-01T00:51:07;9.32;;;1.75;;
54454;SDS011;40364;52.270;10.546;2023-02-01T00:53:36;8.52;;;1.58;;
54454;SDS011;40364;52.270;10.546;2023-02-01T00:56:03;15.35;;;2.25;;
54454;SDS011;40364;52.270;10.546;2023-02-01T00:58:31;17.65;;;1.77;;
54454;SDS011;40364;52.270;10.546;2023-02-01T01:01:02;11.68;;;1.92;;
54454;SDS011;40364;52.270;10.546;2023-02-01T01:03:31;9.18;;;1.63;;
54454;SDS011;40364;52.270;10.546;2023-02-01T01:06:01;15.32;;;2.15;;
54454;SDS011;40364;52.270;10.546;2023-02-01T01:08:29;29.20;;;3.08;;
54454;SDS011;40364;52.270;10.546;2023-02-01T01:10:56;16.58;;;2.20;;
54454;SDS011;40364;52.270;10.546;2023-02-01T01:13:22;13.82;;;2.00;;
54454;SDS011;40364;52.270;10.546;2023-02-01T01:15:49;15.57;;;2.58;;
54454;SDS011;40364;52.270;10.546;2023-02-01T01:18:16;19.60;;;2.85;;
54454;SDS011;40364;52.270;10.546;2023-02-01T01:20:43;11.77;;;2.00;;
54454;SDS011;40364;52.270;10.546;2023-02-01T01:23:11;12.60;;;1.60;;
54454;SDS011;40364;52.270;10.546;2023-02-01T01:25:38;13.18;;;1.58;;
54454;SDS011;40364;52.270;10.546;2023-02-01T01:28:06;14.30;;;1.70;;
54454;SDS011;40364;52.270;10.546;2023-02-01T01:30:33;15.35;;;2.38;;
54454;SDS011;40364;52.270;10.546;2023-02-01T01:33:00;15.00;;;1.90;;
54454;SDS011;40364;52.270;10.546;2023-02-01T01:35:28;13.20;;;2.35;;
54454;SDS011;40364;52.270;10.546;2023-02-01T01:37:56;21.00;;;3.13;;
54454;SDS011;40364;52.270;10.546;2023-02-01T01:40:24;13.43;;;1.83;;
54454;SDS011;40364;52.270;10.546;2023-02-01T01:42:52;20.50;;;2.88;;
54454;SDS011;40364;52.270;10.546;2023-02-01T01:45:23;15.15;;;2.20;;
54454;SDS011;40364;52.270;10.546;2023-02-01T01:47:52;15.40;;;1.90;;
54454;SDS011;40364;52.270;10.546;2023-02-01T01:50:21;16.98;;;2.55;;
54454;SDS011;40364;52.270;10.546;2023-02-01T01:52:52;10.32;;;1.90;;
54454;SDS011;40364;52.270;10.546;2023-02-01T01:55:21;11.18;;;2.33;;
54454;SDS011;40364;52.270;10.546;2023-02-01T01:57:52;14.25;;;2.55;;
54454;SDS011;40364;52.270;10.546;2023-02-01T02:00:22;12.85;;;2.50;;
54454;SDS011;40364;52.270;10.546;2023-02-01T02:02:50;17.10;;;3.60;;
54454;SDS011;40364;52.270;10.546;2023-02-01T02:05:23;13.45;;;2.47;;
54454;SDS011;40364;52.270;10.546;2023-02-01T02:07:51;16.38;;;1.88;;
54454;SDS011;40364;52.270;10.546;2023-02-01T02:10:19;26.25;;;3.22;;
54454;SDS011;40364;52.270;10.546;2023-02-01T02:13:08;18.45;;;3.35;;
54454;SDS011;40364;52.270;10.546;2023-02-01T02:15:36;13.68;;;2.20;;
54454;SDS011;40364;52.270;10.546;2023-02-01T02:18:08;18.15;;;3.17;;
54454;SDS011;40364;52.270;10.546;2023-02-01T02:20:52;17.15;;;2.92;;
54454;SDS011;40364;52.270;10.546;2023-02-01T02:26:45;18.30;;;2.60;;
54454;SDS011;40364;52.270;10.546;2023-02-01T02:29:40;12.55;;;1.90;;
54454;SDS011;40364;52.270;10.546;2023-02-01T02:32:38;26.33;;;4.00;;
54454;SDS011;40364;52.270;10.546;2023-02-01T02:35:23;12.23;;;2.30;;
54454;SDS011;40364;52.270;10.546;2023-02-01T02:37:59;16.35;;;2.15;;
54454;SDS011;40364;52.270;10.546;2023-02-01T02:40:32;17.15;;;3.13;;
54454;SDS011;40364;52.270;10.546;2023-02-01T02:43:04;26.27;;;2.85;;
54454;SDS011;40364;52.270;10.546;2023-02-01T02:45:54;12.63;;;2.13;;
54454;SDS011;40364;52.270;10.546;2023-02-01T02:48:46;16.70;;;2.30;;
54454;SDS011;40364;52.270;10.546;2023-02-01T02:51:20;14.88;;;2.08;;
54454;SDS011;40364;52.270;10.546;2023-02-01T02:54:11;15.38;;;1.83;;
54454;SDS011;40364;52.270;10.546;2023-02-01T02:56:59;7.32;;;1.75;;
54454;SDS011;40364;52.270;10.546;2023-02-01T02:59:45;18.75;;;2.33;;
54454;SDS011;40364;52.270;10.546;2023-02-01T03:02:31;13.63;;;1.85;;
54454;SDS011;40364;52.270;10.546;2023-02-01T03:05:17;14.30;;;2.35;;
54454;SDS011;40364;52.270;10.546;2023-02-01T03:08:08;15.10;;;2.17;;
54454;SDS011;40364;52.270;10.546;2023-02-01T03:10:48;19.25;;;2.33;;
54454;SDS011;40364;52.270;10.546;2023-02-01T03:13:24;12.65;;;1.60;;
54454;SDS011;40364;52.270;10.546;2023-02-01T03:15:57;14.45;;;2.33;;
54454;SDS011;40364;52.270;10.546;2023-02-01T03:18:32;13.77;;;2.17;;
54454;SDS011;40364;52.270;10.546;2023-02-01T03:21:04;16.90;;;3.22;;
54454;SDS011;40364;52.270;10.546;2023-02-01T03:23:37;24.17;;;2.80;;
54454;SDS011;40364;52.270;10.546;2023-02-01T03:26:06;11.90;;;2.08;;
54454;SDS011;40364;52.270;10.546;2023-02-01T03:28:37;12.45;;;1.67;;
54454;SDS011;40364;52.270;10.546;2023-02-01T03:31:08;18.02;;;3.08;;
54454;SDS011;40364;52.270;10.546;2023-02-01T03:33:35;12.45;;;2.42;;
54454;SDS011;40364;52.270;10.546;2023-02-01T03:36:04;20.25;;;2.70;;
54454;SDS011;40364;52.270;10.546;2023-02-01T03:38:42;17.85;;;2.83;;
54454;SDS011;40364;52.270;10.546;2023-02-01T03:41:17;13.35;;;2.42;;
54454;SDS011;40364;52.270;10.546;2023-02-01T03:43:52;9.05;;;2.08;;
54454;SDS011;40364;52.270;10.546;2023-02-01T03:46:23;18.30;;;3.40;;
54454;SDS011;40364;52.270;10.546;2023-02-01T03:48:58;14.45;;;2.95;;
54454;SDS011;40364;52.270;10.546;2023-02-01T03:51:28;8.18;;;1.83;;
54454;SDS011;40364;52.270;10.546;2023-02-01T03:53:57;21.08;;;3.20;;
54454;SDS011;40364;52.270;10.546;2023-02-01T03:56:27;13.27;;;1.98;;
54454;SDS011;40364;52.270;10.546;2023-02-01T03:58:56;8.98;;;1.75;;
54454;SDS011;40364;52.270;10.546;2023-02-01T04:01:26;15.65;;;2.72;;
54454;SDS011;40364;52.270;10.546;2023-02-01T04:03:54;16.95;;;3.20;;
54454;SDS011;40364;52.270;10.546;2023-02-01T04:06:22;13.60;;;2.65;;
54454;SDS011;40364;52.270;10.546;2023-02-01T04:08:48;17.33;;;3.55;;
54454;SDS011;40364;52.270;10.546;2023-02-01T04:11:17;15.30;;;2.92;;
54454;SDS011;40364;52.270;10.546;2023-02-01T04:13:44;10.00;;;2.42;;
54454;SDS011;40364;52.270;10.546;2023-02-01T04:16:11;17.77;;;2.83;;
54454;SDS011;40364;52.270;10.546;2023-02-01T04:18:38;9.88;;;2.17;;
54454;SDS011;40364;52.270;10.546;2023-02-01T04:21:04;11.73;;;1.88;;
54454;SDS011;40364;52.270;10.546;2023-02-01T04:23:31;14.57;;;2.33;;
54454;SDS011;40364;52.270;10.546;2023-02-01T04:25:59;15.32;;;2.38;;
54454;SDS011;40364;52.270;10.546;2023-02-01T04:28:28;13.48;;;3.08;;
54454;SDS011;40364;52.270;10.546;2023-02-01T04:30:55;22.10;;;2.83;;
54454;SDS011;40364;52.270;10.546;2023-02-01T04:33:22;22.60;;;3.22;;
54454;SDS011;40364;52.270;10.546;2023-02-01T04:35:48;24.65;;;3.33;;
54454;SDS011;40364;52.270;10.546;2023-02-01T04:38:15;19.35;;;2.38;;
54454;SDS011;40364;52.270;10.546;2023-02-01T04:40:42;15.95;;;2.42;;
54454;SDS011;40364;52.270;10.546;2023-02-01T04:43:09;13.27;;;2.53;;
54454;SDS011;40364;52.270;10.546;2023-02-01T04:45:37;16.13;;;2.88;;
54454;SDS011;40364;52.270;10.546;2023-02-01T04:48:04;11.52;;;2.70;;
54454;SDS011;40364;52.270;10.546;2023-02-01T04:50:31;14.10;;;2.83;;
54454;SDS011;40364;52.270;10.546;2023-02-01T04:52:58;14.25;;;2.78;;
54454;SDS011;40364;52.270;10.546;2023-02-01T04:55:25;10.00;;;2.85;;
54454;SDS011;40364;52.270;10.546;2023-02-01T04:57:51;9.18;;;2.60;;
54454;SDS011;40364;52.270;10.546;2023-02-01T05:00:18;23.33;;;3.17;;
54454;SDS011;40364;52.270;10.546;2023-02-01T05:02:47;16.23;;;3.05;;
54454;SDS011;40364;52.270;10.546;2023-02-01T05:05:14;19.25;;;2.90;;
54454;SDS011;40364;52.270;10.546;2023-02-01T05:07:41;13.70;;;2.95;;
54454;SDS011;40364;52.270;10.546;2023-02-01T05:10:08;12.80;;;3.10;;
54454;SDS011;40364;52.270;10.546;2023-02-01T05:12:35;18.67;;;2.70;;
54454;SDS011;40364;52.270;10.546;2023-02-01T05:15:19;24.65;;;4.15;;
54454;SDS011;40364;52.270;10.546;2023-02-01T05:17:47;8.38;;;2.40;;
54454;SDS011;40364;52.270;10.546;2023-02-01T05:20:14;15.60;;;2.90;;
54454;SDS011;40364;52.270;10.546;2023-02-01T05:22:41;9.63;;;2.28;;
54454;SDS011;40364;52.270;10.546;2023-02-01T05:25:07;17.95;;;3.50;;
54454;SDS011;40364;52.270;10.546;2023-02-01T05:27:34;12.63;;;2.58;;
54454;SDS011;40364;52.270;10.546;2023-02-01T05:30:02;16.85;;;3.00;;
54454;SDS011;40364;52.270;10.546;2023-02-01T05:32:29;16.92;;;2.90;;
54454;SDS011;40364;52.270;10.546;2023-02-01T05:34:57;15.80;;;3.47;;
54454;SDS011;40364;52.270;10.546;2023-02-01T05:37:23;22.23;;;4.72;;
54454;SDS011;40364;52.270;10.546;2023-02-01T05:39:50;19.63;;;4.18;;
54454;SDS011;40364;52.270;10.546;2023-02-01T05:42:17;17.63;;;3.15;;
54454;SDS011;40364;52.270;10.546;2023-02-01T05:44:44;12.77;;;4.18;;
54454;SDS011;40364;52.270;10.546;2023-02-01T05:47:10;22.38;;;3.72;;
54454;SDS011;40364;52.270;10.546;2023-02-01T05:49:37;21.48;;;3.88;;
54454;SDS011;40364;52.270;10.546;2023-02-01T05:52:05;24.35;;;4.70;;
54454;SDS011;40364;52.270;10.546;2023-02-01T05:54:32;25.73;;;4.13;;
54454;SDS011;40364;52.270;10.546;2023-02-01T05:56:59;15.63;;;4.80;;
54454;SDS011;40364;52.270;10.546;2023-02-01T05:59:25;18.77;;;4.32;;
54454;SDS011;40364;52.270;10.546;2023-02-01T06:01:52;23.00;;;3.17;;
54454;SDS011;40364;52.270;10.546;2023-02-01T06:04:19;32.15;;;3.63;;
54454;SDS011;40364;52.270;10.546;2023-02-01T06:06:45;15.02;;;3.92;;
54454;SDS011;40364;52.270;10.546;2023-02-01T06:09:17;21.70;;;4.95;;
54454;SDS011;40364;52.270;10.546;2023-02-01T06:11:44;13.30;;;3.83;;
54454;SDS011;40364;52.270;10.546;2023-02-01T06:14:10;22.60;;;4.93;;
54454;SDS011;40364;52.270;10.546;2023-02-01T06:16:37;10.70;;;3.75;;
54454;SDS011;40364;52.270;10.546;2023-02-01T06:19:03;20.65;;;4.57;;
54454;SDS011;40364;52.270;10.546;2023-02-01T06:21:30;19.77;;;4.18;;
54454;SDS011;40364;52.270;10.546;2023-02-01T06:23:58;20.70;;;3.97;;
54454;SDS011;40364;52.270;10.546;2023-02-01T06:26:26;16.92;;;3.70;;
54454;SDS011;40364;52.270;10.546;2023-02-01T06:28:54;13.65;;;4.05;;
54454;SDS011;40364;52.270;10.546;2023-02-01T06:31:21;17.60;;;3.72;;
54454;SDS011;40364;52.270;10.546;2023-02-01T06:33:48;13.00;;;3.22;;
54454;SDS011;40364;52.270;10.546;2023-02-01T06:36:15;17.23;;;3.83;;
54454;SDS011;40364;52.270;10.546;2023-02-01T06:38:43;22.27;;;3.38;;
54454;SDS011;40364;52.270;10.546;2023-02-01T06:41:10;19.55;;;3.75;;
54454;SDS011;40364;52.270;10.546;2023-02-01T06:43:39;8.27;;;3.63;;
54454;SDS011;40364;52.270;10.546;2023-02-01T06:46:06;15.65;;;3.63;;
54454;SDS011;40364;52.270;10.546;2023-02-01T06:48:34;12.00;;;3.03;;
54454;SDS011;40364;52.270;10.546;2023-02-01T06:51:00;14.63;;;3.33;;
54454;SDS011;40364;52.270;10.546;2023-02-01T06:53:27;12.90;;;2.83;;
54454;SDS011;40364;52.270;10.546;2023-02-01T06:55:55;10.00;;;2.90;;
54454;SDS011;40364;52.270;10.546;2023-02-01T06:58:23;16.60;;;2.55;;
54454;SDS011;40364;52.270;10.546;2023-02-01T07:00:51;18.25;;;3.67;;
54454;SDS011;40364;52.270;10.546;2023-02-01T07:03:19;15.70;;;3.70;;
54454;SDS011;40364;52.270;10.546;2023-02-01T07:05:45;19.15;;;2.97;;
54454;SDS011;40364;52.270;10.546;2023-02-01T07:08:12;17.83;;;3.38;;
54454;SDS011;40364;52.270;10.546;2023-02-01T07:10:39;14.77;;;3.33;;
54454;SDS011;40364;52.270;10.546;2023-02-01T07:13:06;11.93;;;2.88;;
54454;SDS011;40364;52.270;10.546;2023-02-01T07:15:32;11.52;;;2.90;;
54454;SDS011;40364;52.270;10.546;2023-02-01T07:18:00;7.10;;;2.75;;
54454;SDS011;40364;52.270;10.546;2023-02-01T07:20:27;16.98;;;2.90;;
54454;SDS011;40364;52.270;10.546;2023-02-01T07:22:54;7.65;;;3.17;;
54454;SDS011;40364;52.270;10.546;2023-02-01T07:25:21;14.93;;;2.90;;
54454;SDS011;40364;52.270;10.546;2023-02-01T07:27:48;18.60;;;3.50;;
54454;SDS011;40364;52.270;10.546;2023-02-01T07:30:15;5.90;;;2.38;;
54454;SDS011;40364;52.270;10.546;2023-02-01T07:32:42;8.85;;;4.15;;
54454;SDS011;40364;52.270;10.546;2023-02-01T07:35:10;10.10;;;2.65;;
54454;SDS011;40364;52.270;10.546;2023-02-01T07:37:39;12.65;;;3.42;;
54454;SDS011;40364;52.270;10.546;2023-02-01T07:40:06;9.98;;;2.72;;
54454;SDS011;40364;52.270;10.546;2023-02-01T07:42:33;16.02;;;2.78;;
54454;SDS011;40364;52.270;10.546;2023-02-01T07:45:00;18.17;;;4.03;;
54454;SDS011;40364;52.270;10.546;2023-02-01T07:47:27;10.27;;;2.97;;
54454;SDS011;40364;52.270;10.546;2023-02-01T07:49:54;9.15;;;2.50;;
54454;SDS011;40364;52.270;10.546;2023-02-01T07:52:22;12.00;;;3.40;;
54454;SDS011;40364;52.270;10.546;2023-02-01T07:54:48;7.68;;;2.92;;
54454;SDS011;40364;52.270;10.546;2023-02-01T07:57:15;9.45;;;2.72;;
54454;SDS011;40364;52.270;10.546;2023-02-01T07:59:41;13.10;;;3.47;;
54454;SDS011;40364;52.270;10.546;2023-02-01T08:02:22;9.57;;;2.95;;
54454;SDS011;40364;52.270;10.546;2023-02-01T08:04:49;12.70;;;2.45;;
54454;SDS011;40364;52.270;10.546;2023-02-01T08:07:15;14.85;;;2.92;;
54454;SDS011;40364;52.270;10.546;2023-02-01T08:09:43;19.45;;;3.58;;
54454;SDS011;40364;52.270;10.546;2023-02-01T08:12:10;13.60;;;2.97;;
54454;SDS011;40364;52.270;10.546;2023-02-01T08:14:37;16.63;;;3.22;;
54454;SDS011;40364;52.270;10.546;2023-02-01T08:17:05;15.40;;;2.90;;
54454;SDS011;40364;52.270;10.546;2023-02-01T08:19:32;16.77;;;2.88;;
54454;SDS011;40364;52.270;10.546;2023-02-01T08:21:59;12.48;;;3.20;;
54454;SDS011;40364;52.270;10.546;2023-02-01T08:24:31;8.48;;;2.40;;
54454;SDS011;40364;52.270;10.546;2023-02-01T08:27:01;12.52;;;2.88;;
54454;SDS011;40364;52.270;10.546;2023-02-01T08:29:28;15.88;;;2.80;;
54454;SDS011;40364;52.270;10.546;2023-02-01T08:31:55;13.85;;;3.10;;
54454;SDS011;40364;52.270;10.546;2023-02-01T08:34:22;12.52;;;2.40;;
54454;SDS011;40364;52.270;10.546;2023-02-01T08:36:48;14.52;;;2.85;;
54454;SDS011;40364;52.270;10.546;2023-02-01T08:39:17;18.90;;;3.80;;
54454;SDS011;40364;52.270;10.546;2023-02-01T08:41:43;18.23;;;2.65;;
54454;SDS011;40364;52.270;10.546;2023-02-01T08:44:33;12.68;;;2.83;;
54454;SDS011;40364;52.270;10.546;2023-02-01T08:47:00;19.40;;;3.58;;
54454;SDS011;40364;52.270;10.546;2023-02-01T08:49:26;11.90;;;2.58;;
54454;SDS011;40364;52.270;10.546;2023-02-01T08:51:53;13.73;;;2.70;;
54454;SDS011;40364;52.270;10.546;2023-02-01T08:54:20;11.13;;;2.80;;
54454;SDS011;40364;52.270;10.546;2023-02-01T08:56:47;12.90;;;2.30;;
54454;SDS011;40364;52.270;10.546;2023-02-01T08:59:13;11.93;;;2.45;;
54454;SDS011;40364;52.270;10.546;2023-02-01T09:01:41;13.45;;;2.40;;
54454;SDS011;40364;52.270;10.546;2023-02-01T09:04:08;14.65;;;3.70;;
54454;SDS011;40364;52.270;10.546;2023-02-01T09:06:35;14.95;;;2.10;;
54454;SDS011;40364;52.270;10.546;2023-02-01T09:09:02;12.75;;;1.90;;
54454;SDS011;40364;52.270;10.546;2023-02-01T09:11:28;13.68;;;2.20;;
54454;SDS011;40364;52.270;10.546;2023-02-01T09:13:55;8.57;;;2.00;;
54454;SDS011;40364;52.270;10.546;2023-02-01T09:16:22;17.60;;;3.75;;
54454;SDS011;40364;52.270;10.546;2023-02-01T09:18:51;17.98;;;3.58;;
54454;SDS011;40364;52.270;10.546;2023-02-01T09:21:17;22.98;;;3.30;;
54454;SDS011;40364;52.270;10.546;2023-02-01T09:23:44;25.30;;;2.92;;
54454;SDS011;40364;52.270;10.546;2023-02-01T09:26:13;21.25;;;3.15;;
54454;SDS011;40364;52.270;10.546;2023-02-01T09:28:40;18.88;;;3.40;;
54454;SDS011;40364;52.270;10.546;2023-02-01T09:31:07;15.70;;;2.80;;
54454;SDS011;40364;52.270;10.546;2023-02-01T09:33:33;25.13;;;3.88;;
54454;SDS011;40364;52.270;10.546;2023-02-01T09:36:03;19.70;;;3.03;;
54454;SDS011;40364;52.270;10.546;2023-02-01T09:38:31;15.65;;;3.05;;
54454;SDS011;40364;52.270;10.546;2023-02-01T09:40:58;18.15;;;2.47;;
54454;SDS011;40364;52.270;10.546;2023-02-01T09:43:29;15.85;;;3.15;;
54454;SDS011;40364;52.270;10.546;2023-02-01T09:46:12;9.15;;;1.88;;
54454;SDS011;40364;52.270;10.546;2023-02-01T09:48:46;10.73;;;2.45;;
54454;SDS011;40364;52.270;10.546;2023-02-01T09:51:16;17.85;;;3.22;;
54454;SDS011;40364;52.270;10.546;2023-02-01T09:53:47;10.30;;;1.80;;
54454;SDS011;40364;52.270;10.546;2023-02-01T09:56:24;10.10;;;2.55;;
54454;SDS011;40364;52.270;10.546;2023-02-01T09:58:56;19.02;;;2.13;;
54454;SDS011;40364;52.270;10.546;2023-02-01T10:01:30;10.45;;;1.98;;
54454;SDS011;40364;52.270;10.546;2023-02-01T10:03:59;8.65;;;1.45;;
54454;SDS011;40364;52.270;10.546;2023-02-01T10:06:35;9.20;;;1.92;;
54454;SDS011;40364;52.270;10.546;2023-02-01T10:09:14;13.38;;;4.93;;
54454;SDS011;40364;52.270;10.546;2023-02-01T10:12:00;9.43;;;1.70;;
54454;SDS011;40364;52.270;10.546;2023-02-01T10:14:46;8.02;;;1.60;;
54454;SDS011;40364;52.270;10.546;2023-02-01T10:17:26;18.55;;;2.67;;
54454;SDS011;40364;52.270;10.546;2023-02-01T10:20:06;11.07;;;2.08;;
54454;SDS011;40364;52.270;10.546;2023-02-01T10:22:41;9.65;;;2.17;;
54454;SDS011;40364;52.270;10.546;2023-02-01T10:25:13;7.55;;;1.75;;
54454;SDS011;40364;52.270;10.546;2023-02-01T10:27:46;10.88;;;2.25;;
54454;SDS011;40364;52.270;10.546;2023-02-01T10:30:16;6.97;;;2.00;;
54454;SDS011;40364;52.270;10.546;2023-02-01T10:32:47;7.13;;;1.83;;
54454;SDS011;40364;52.270;10.546;2023-02-01T10:35:17;7.40;;;1.80;;
54454;SDS011;40364;52.270;10.546;2023-02-01T10:37:46;20.70;;;3.88;;
54454;SDS011;40364;52.270;10.546;2023-02-01T10:40:15;9.50;;;2.00;;
54454;SDS011;40364;52.270;10.546;2023-02-01T10:42:45;9.75;;;1.30;;
54454;SDS011;40364;52.270;10.546;2023-02-01T10:45:13;8.63;;;1.70;;
54454;SDS011;40364;52.270;10.546;2023-02-01T10:47:42;8.15;;;1.70;;
54454;SDS011;40364;52.270;10.546;2023-02-01T10:50:13;12.57;;;2.38;;
54454;SDS011;40364;52.270;10.546;2023-02-01T10:52:48;15.82;;;2.42;;
54454;SDS011;40364;52.270;10.546;2023-02-01T10:58:15;12.68;;;2.55;;
54454;SDS011;40364;52.270;10.546;2023-02-01T11:00:44;8.77;;;2.28;;
54454;SDS011;40364;52.270;10.546;2023-02-01T11:03:21;10.18;;;1.95;;
54454;SDS011;40364;52.270;10.546;2023-02-01T11:05:57;5.57;;;1.63;;
54454;SDS011;40364;52.270;10.546;2023-02-01T11:08:25;9.52;;;1.83;;
54454;SDS011;40364;52.270;10.546;2023-02-01T11:10:57;16.42;;;2.30;;
54454;SDS011;40364;52.270;10.546;2023-02-01T11:13:28;19.30;;;3.13;;
54454;SDS011;40364;52.270;10.546;2023-02-01T11:15:57;10.15;;;2.10;;
54454;SDS011;40364;52.270;10.546;2023-02-01T11:18:25;10.55;;;1.63;;
54454;SDS011;40364;52.270;10.546;2023-02-01T11:20:53;8.75;;;1.88;;
54454;SDS011;40364;52.270;10.546;2023-02-01T11:23:21;10.95;;;2.65;;
54454;SDS011;40364;52.270;10.546;2023-02-01T11:25:52;17.80;;;2.20;;
54454;SDS011;40364;52.270;10.546;2023-02-01T11:28:21;13.30;;;2.25;;
54454;SDS011;40364;52.270;10.546;2023-02-01T11:30:51;13.15;;;2.15;;
54454;SDS011;40364;52.270;10.546;2023-02-01T11:33:24;12.90;;;2.00;;
54454;SDS011;40364;52.270;10.546;2023-02-01T11:35:56;11.05;;;1.65;;
54454;SDS011;40364;52.270;10.546;2023-02-01T11:38:27;8.77;;;2.10;;
54454;SDS011;40364;52.270;10.546;2023-02-01T11:40:58;9.13;;;2.60;;
54454;SDS011;40364;52.270;10.546;2023-02-01T11:43:38;7.22;;;1.30;;
54454;SDS011;40364;52.270;10.546;2023-02-01T11:46:22;13.35;;;2.22;;
54454;SDS011;40364;52.270;10.546;2023-02-01T11:48:57;12.82;;;2.25;;
54454;SDS011;40364;52.270;10.546;2023-02-01T11:51:49;9.10;;;2.22;;
54454;SDS011;40364;52.270;10.546;2023-02-01T11:54:30;13.90;;;2.58;;
54454;SDS011;40364;52.270;10.546;2023-02-01T11:57:12;9.85;;;2.10;;
54454;SDS011;40364;52.270;10.546;2023-02-01T11:59:52;12.27;;;1.75;;
54454;SDS011;40364;52.270;10.546;2023-02-01T12:02:42;9.93;;;2.05;;
54454;SDS011;40364;52.270;10.546;2023-02-01T12:05:25;11.23;;;1.95;;
54454;SDS011;40364;52.270;10.546;2023-02-01T12:08:02;11.38;;;1.95;;
54454;SDS011;40364;52.270;10.546;2023-02-01T12:10:41;13.85;;;1.70;;
54454;SDS011;40364;52.270;10.546;2023-02-01T12:13:17;9.63;;;1.80;;
54454;SDS011;40364;52.270;10.546;2023-02-01T12:15:56;8.45;;;1.90;;
54454;SDS011;40364;52.270;10.546;2023-02-01T12:21:46;11.30;;;2.05;;
54454;SDS011;40364;52.270;10.546;2023-02-01T12:27:35;16.55;;;2.92;;
54454;SDS011;40364;52.270;10.546;2023-02-01T12:30:19;17.42;;;2.35;;
54454;SDS011;40364;52.270;10.546;2023-02-01T12:33:08;9.85;;;2.38;;
54454;SDS011;40364;52.270;10.546;2023-02-01T12:35:53;9.93;;;2.20;;
54454;SDS011;40364;52.270;10.546;2023-02-01T12:38:35;14.25;;;1.98;;
54454;SDS011;40364;52.270;10.546;2023-02-01T12:41:19;19.17;;;2.72;;
54454;SDS011;40364;52.270;10.546;2023-02-01T12:44:08;9.50;;;1.88;;
54454;SDS011;40364;52.270;10.546;2023-02-01T12:46:45;12.60;;;2.30;;
54454;SDS011;40364;52.270;10.546;2023-02-01T12:49:17;7.00;;;1.77;;
54454;SDS011;40364;52.270;10.546;2023-02-01T12:51:51;11.60;;;2.20;;
54454;SDS011;40364;52.270;10.546;2023-02-01T12:54:26;12.70;;;2.88;;
54454;SDS011;40364;52.270;10.546;2023-02-01T12:57:01;12.38;;;2.47;;
54454;SDS011;40364;52.270;10.546;2023-02-01T12:59:31;12.57;;;1.90;;
54454;SDS011;40364;52.270;10.546;2023-02-01T13:02:08;15.27;;;2.33;;
54454;SDS011;40364;52.270;10.546;2023-02-01T13:04:55;14.45;;;3.35;;
54454;SDS011;40364;52.270;10.546;2023-02-01T13:07:29;14.45;;;2.55;;
54454;SDS011;40364;52.270;10.546;2023-02-01T13:10:01;14.52;;;3.97;;
54454;SDS011;40364;52.270;10.546;2023-02-01T13:12:38;9.38;;;2.10;;
54454;SDS011;40364;52.270;10.546;2023-02-01T13:15:10;11.00;;;2.17;;
54454;SDS011;40364;52.270;10.546;2023-02-01T13:17:43;18.60;;;2.30;;
54454;SDS011;40364;52.270;10.546;2023-02-01T13:20:16;13.93;;;3.08;;
54454;SDS011;40364;52.270;10.546;2023-02-01T13:22:48;13.10;;;1.80;;
54454;SDS011;40364;52.270;10.546;2023-02-01T13:25:26;17.55;;;2.97;;
54454;SDS011;40364;52.270;10.546;2023-02-01T13:28:00;7.45;;;2.90;;
54454;SDS011;40364;52.270;10.546;2023-02-01T13:30:34;11.13;;;2.53;;
54454;SDS011;40364;52.270;10.546;2023-02-01T13:33:19;9.20;;;2.33;;
54454;SDS011;40364;52.270;10.546;2023-02-01T13:36:08;13.63;;;3.63;;
54454;SDS011;40364;52.270;10.546;2023-02-01T13:41:51;15.30;;;3.30;;
54454;SDS011;40364;52.270;10.546;2023-02-01T13:44:23;11.75;;;2.13;;
54454;SDS011;40364;52.270;10.546;2023-02-01T13:46:54;20.88;;;3.05;;
54454;SDS011;40364;52.270;10.546;2023-02-01T13:49:31;10.18;;;2.45;;
54454;SDS011;40364;52.270;10.546;2023-02-01T13:51:59;14.57;;;2.20;;
54454;SDS011;40364;52.270;10.546;2023-02-01T13:54:27;13.07;;;2.50;;
54454;SDS011;40364;52.270;10.546;2023-02-01T13:56:56;9.60;;;2.42;;
54454;SDS011;40364;52.270;10.546;2023-02-01T14:02:44;3.55;;;1.77;;
54454;SDS011;40364;52.270;10.546;2023-02-01T14:06:14;4.82;;;1.83;;
54454;SDS011;40364;52.270;10.546;2023-02-01T14:08:44;4.00;;;1.63;;
54454;SDS011;40364;52.270;10.546;2023-02-01T14:23:28;1.60;;;0.70;;
54454;SDS011;40364;52.270;10.546;2023-02-01T14:28:46;1.25;;;0.73;;
54454;SDS011;40364;52.270;10.546;2023-02-01T14:34:06;3.35;;;0.45;;
54454;SDS011;40364;52.270;10.546;2023-02-01T14:36:40;1.08;;;0.55;;
54454;SDS011;40364;52.270;10.546;2023-02-01T14:42:05;1.95;;;0.43;;
54454;SDS011;40364;52.270;10.546;2023-02-01T14:44:45;1.95;;;0.60;;
54454;SDS011;40364;52.270;10.546;2023-02-01T14:50:00;2.28;;;0.68;;
54454;SDS011;40364;52.270;10.546;2023-02-01T14:52:50;1.42;;;0.55;;
54454;SDS011;40364;52.270;10.546;2023-02-01T14:55:27;2.33;;;0.43;;
54454;SDS011;40364;52.270;10.546;2023-02-01T14:58:00;3.42;;;0.90;;
54454;SDS011;40364;52.270;10.546;2023-02-01T15:00:31;3.47;;;0.65;;
54454;SDS011;40364;52.270;10.546;2023-02-01T15:03:13;0.85;;;0.50;;
54454;SDS011;40364;52.270;10.546;2023-02-01T15:05:56;0.77;;;0.40;;
54454;SDS011;40364;52.270;10.546;2023-02-01T15:08:24;1.17;;;0.50;;
54454;SDS011;40364;52.270;10.546;2023-02-01T15:10:54;5.38;;;0.50;;
54454;SDS011;40364;52.270;10.546;2023-02-01T15:13:22;3.20;;;0.65;;
54454;SDS011;40364;52.270;10.546;2023-02-01T15:16:00;1.02;;;0.80;;
54454;SDS011;40364;52.270;10.546;2023-02-01T15:18:35;1.85;;;0.68;;
54454;SDS011;40364;52.270;10.546;2023-02-01T15:21:03;2.13;;;0.57;;
54454;SDS011;40364;52.270;10.546;2023-02-01T15:23:31;1.25;;;0.57;;
54454;SDS011;40364;52.270;10.546;2023-02-01T15:25:59;3.42;;;0.80;;
54454;SDS011;40364;52.270;10.546;2023-02-01T15:28:26;1.10;;;0.70;;
54454;SDS011;40364;52.270;10.546;2023-02-01T15:30:54;2.17;;;0.70;;
54454;SDS011;40364;52.270;10.546;2023-02-01T15:33:22;3.78;;;0.75;;